Time;durP1;ratioP1;P1;durP2;ratioP2;P2;SDS_P1;SDS_P2;PMS_P1;PMS_P2;Temp;Humidity;BMP_temperature;BMP_pressure;BME280_temperature;BME280_humidity;BME280_pressure;Samples;Min_cycle;Max_cycle;Signal;HPM_P1;HPM_P2
2022/05/12 00:01:10;;;;;;;6.20;4.13;;;;;;;;;;5075454;28;20764;-69
2022/05/12 00:03:36;;;;;;;5.07;3.60;;;;;;;;;;5075470;28;20483;-66
2022/05/12 00:06:02;;;;;;;5.87;3.67;;;;;;;;;;5075379;28;20422;-65
2022/05/12 00:08:28;;;;;;;4.97;3.63;;;;;;;;;;5092877;28;20788;-66
2022/05/12 00:10:54;;;;;;;3.77;3.47;;;;;;;;;;5095382;28;20446;-64
2022/05/12 00:13:20;;;;;;;3.77;3.40;;;;;;;;;;5095486;28;20421;-63
2022/05/12 00:15:48;;;;;;;4.23;3.40;;;;;;;;;;5094249;28;20919;-64
2022/05/12 00:18:14;;;;;;;3.40;3.20;;;;;;;;;;5095283;28;20516;-65
2022/05/12 00:20:42;;;;;;;4.23;3.70;;;;;;;;;;5094870;28;20476;-64
2022/05/12 00:23:17;;;;;;;4.10;3.60;;;;;;;;;;5095310;28;20486;-65
2022/05/12 00:25:44;;;;;;;6.50;3.63;;;;;;;;;;5095144;28;20399;-64
2022/05/12 00:28:11;;;;;;;4.53;3.53;;;;;;;;;;5095148;28;20439;-64
2022/05/12 00:30:37;;;;;;;3.70;3.40;;;;;;;;;;5095035;28;20914;-65
2022/05/12 00:33:03;;;;;;;3.80;3.50;;;;;;;;;;5095220;28;20408;-65
2022/05/12 00:35:31;;;;;;;4.30;3.90;;;;;;;;;;5095061;28;20411;-64
2022/05/12 00:37:57;;;;;;;3.70;3.50;;;;;;;;;;5094960;28;20498;-65
2022/05/12 00:40:23;;;;;;;4.00;3.70;;;;;;;;;;5095039;28;20400;-65
2022/05/12 00:43:00;;;;;;;3.97;3.67;;;;;;;;;;5094925;28;20494;-64
2022/05/12 00:45:27;;;;;;;5.83;3.83;;;;;;;;;;5094972;28;20400;-63
2022/05/12 00:47:53;;;;;;;3.57;3.27;;;;;;;;;;5094697;28;20419;-63
2022/05/12 00:50:20;;;;;;;5.23;3.83;;;;;;;;;;5094881;28;20742;-63
2022/05/12 00:52:46;;;;;;;4.70;3.63;;;;;;;;;;5094739;28;20404;-63
2022/05/12 00:55:16;;;;;;;5.17;3.50;;;;;;;;;;5094798;28;20400;-63
2022/05/12 00:57:45;;;;;;;3.90;3.60;;;;;;;;;;5094449;28;20466;-63
2022/05/12 01:00:13;;;;;;;5.03;4.30;;;;;;;;;;5094442;28;20789;-63
2022/05/12 01:02:39;;;;;;;4.00;3.60;;;;;;;;;;5094554;28;20403;-64
2022/05/12 01:05:07;;;;;;;3.93;3.60;;;;;;;;;;5094525;28;20429;-65
2022/05/12 01:07:33;;;;;;;3.80;3.50;;;;;;;;;;5084347;28;20460;-63
2022/05/12 01:10:00;;;;;;;6.90;4.53;;;;;;;;;;5074008;28;20449;-63
2022/05/12 01:12:26;;;;;;;4.67;4.00;;;;;;;;;;5056044;28;21019;-64
2022/05/12 01:14:53;;;;;;;4.93;4.10;;;;;;;;;;5073967;28;20428;-63
2022/05/12 01:17:19;;;;;;;3.70;3.43;;;;;;;;;;5073983;28;20488;-66
2022/05/12 01:19:48;;;;;;;3.83;3.53;;;;;;;;;;5056053;28;20847;-64
2022/05/12 01:22:27;;;;;;;5.70;3.70;;;;;;;;;;5073946;28;20435;-64
2022/05/12 01:24:53;;;;;;;4.40;4.00;;;;;;;;;;5073786;28;20419;-63
2022/05/12 01:27:19;;;;;;;6.17;4.30;;;;;;;;;;5073837;28;20432;-63
2022/05/12 01:29:46;;;;;;;4.10;3.70;;;;;;;;;;5073690;28;20401;-68
2022/05/12 01:32:12;;;;;;;6.00;4.17;;;;;;;;;;5072854;28;20415;-64
2022/05/12 01:34:38;;;;;;;4.20;3.80;;;;;;;;;;5073630;28;20428;-64
2022/05/12 01:37:04;;;;;;;4.50;4.07;;;;;;;;;;5073754;28;20501;-64
2022/05/12 01:39:30;;;;;;;6.13;4.70;;;;;;;;;;5073479;28;20472;-64
2022/05/12 01:41:57;;;;;;;4.13;3.80;;;;;;;;;;5073519;28;20401;-64
2022/05/12 01:44:22;;;;;;;4.30;3.90;;;;;;;;;;5073589;28;20409;-63
2022/05/12 01:46:49;;;;;;;4.33;3.70;;;;;;;;;;5073594;28;20403;-65
2022/05/12 01:49:14;;;;;;;4.37;3.73;;;;;;;;;;5073333;28;20842;-65
2022/05/12 01:51:41;;;;;;;4.13;3.50;;;;;;;;;;5073354;28;20484;-64
2022/05/12 01:54:07;;;;;;;3.73;3.43;;;;;;;;;;5073443;28;20920;-63
2022/05/12 01:56:33;;;;;;;4.27;3.97;;;;;;;;;;5073277;28;20923;-64
2022/05/12 01:58:59;;;;;;;5.60;3.70;;;;;;;;;;5073211;28;20472;-64
2022/05/12 02:01:24;;;;;;;4.57;3.80;;;;;;;;;;5073246;28;20408;-68
2022/05/12 02:03:50;;;;;;;4.93;3.50;;;;;;;;;;5073327;28;20416;-71
2022/05/12 02:06:16;;;;;;;4.03;3.77;;;;;;;;;;5073169;28;20488;-67
2022/05/12 02:08:42;;;;;;;4.63;4.20;;;;;;;;;;5072802;28;20463;-66
2022/05/12 02:11:08;;;;;;;7.03;4.00;;;;;;;;;;5055330;28;20420;-64
2022/05/12 02:13:34;;;;;;;4.77;4.37;;;;;;;;;;5073197;28;20416;-66
2022/05/12 02:16:00;;;;;;;5.10;3.90;;;;;;;;;;5073112;28;20504;-64
2022/05/12 02:18:27;;;;;;;4.30;3.90;;;;;;;;;;5072969;28;20574;-65
2022/05/12 02:20:53;;;;;;;4.43;3.90;;;;;;;;;;5073141;28;20419;-64
2022/05/12 02:23:19;;;;;;;6.30;3.80;;;;;;;;;;5073169;28;20500;-68
2022/05/12 02:25:45;;;;;;;5.10;3.83;;;;;;;;;;5072972;28;20401;-63
2022/05/12 02:28:12;;;;;;;3.70;3.50;;;;;;;;;;5072938;28;21002;-64
2022/05/12 02:30:38;;;;;;;4.20;3.80;;;;;;;;;;5072973;28;20415;-67
2022/05/12 02:33:04;;;;;;;4.57;3.70;;;;;;;;;;5073059;28;20412;-64
2022/05/12 02:35:30;;;;;;;6.57;4.20;;;;;;;;;;5072883;28;20443;-64
2022/05/12 02:37:56;;;;;;;3.97;3.70;;;;;;;;;;5072916;28;20500;-65
2022/05/12 02:40:25;;;;;;;4.47;4.07;;;;;;;;;;5073032;28;20470;-63
2022/05/12 02:42:51;;;;;;;5.67;3.80;;;;;;;;;;5074168;28;20907;-65
2022/05/12 02:45:17;;;;;;;4.13;3.83;;;;;;;;;;5076968;28;20393;-63
2022/05/12 02:47:44;;;;;;;4.80;4.03;;;;;;;;;;5076872;28;20958;-64
2022/05/12 02:50:11;;;;;;;5.63;4.40;;;;;;;;;;5076810;28;20533;-66
2022/05/12 02:52:37;;;;;;;6.17;4.43;;;;;;;;;;5076849;28;20495;-64
2022/05/12 02:55:04;;;;;;;4.80;4.30;;;;;;;;;;5076680;28;21017;-64
2022/05/12 02:57:30;;;;;;;4.63;4.20;;;;;;;;;;5076530;28;20565;-63
2022/05/12 02:59:56;;;;;;;5.23;4.73;;;;;;;;;;5076654;28;20412;-63
2022/05/12 03:02:22;;;;;;;4.57;4.27;;;;;;;;;;5076606;28;20897;-63
2022/05/12 03:04:48;;;;;;;5.17;4.73;;;;;;;;;;5076497;28;20814;-63
2022/05/12 03:07:14;;;;;;;4.00;3.77;;;;;;;;;;5076230;28;20460;-64
2022/05/12 03:09:41;;;;;;;4.47;4.07;;;;;;;;;;5058456;28;20424;-64
2022/05/12 03:12:07;;;;;;;4.40;4.07;;;;;;;;;;5076464;28;20404;-64
2022/05/12 03:14:33;;;;;;;4.60;4.17;;;;;;;;;;5076346;28;20408;-63
2022/05/12 03:16:59;;;;;;;5.07;4.57;;;;;;;;;;5076366;28;20492;-64
2022/05/12 03:19:25;;;;;;;5.03;4.63;;;;;;;;;;5076021;28;20974;-63
2022/05/12 03:21:51;;;;;;;4.00;3.60;;;;;;;;;;5076214;28;20424;-63
2022/05/12 03:24:18;;;;;;;4.20;3.90;;;;;;;;;;5076158;28;20412;-66
2022/05/12 03:26:45;;;;;;;4.17;3.77;;;;;;;;;;5076057;28;20424;-66
2022/05/12 03:29:11;;;;;;;5.17;3.97;;;;;;;;;;5076000;28;20409;-64
2022/05/12 03:31:37;;;;;;;6.50;3.63;;;;;;;;;;5076044;28;20404;-64
2022/05/12 03:34:04;;;;;;;4.00;3.60;;;;;;;;;;5076070;28;20803;-67
2022/05/12 03:36:35;;;;;;;3.83;3.33;;;;;;;;;;5075795;28;20399;-64
2022/05/12 03:39:01;;;;;;;7.90;3.60;;;;;;;;;;5075858;28;20471;-66
2022/05/12 03:41:27;;;;;;;3.50;3.20;;;;;;;;;;5075871;28;20952;-67
2022/05/12 03:46:38;;;;;;;4.63;2.90;;;;;;;;;;5075910;28;20396;-66
2022/05/12 03:49:04;;;;;;;3.43;2.97;;;;;;;;;;5075568;28;20416;-68
2022/05/12 03:51:30;;;;;;;3.90;3.60;;;;;;;;;;5075671;28;20912;-65
2022/05/12 03:53:56;;;;;;;4.50;2.83;;;;;;;;;;5075047;28;20423;-64
2022/05/12 03:56:22;;;;;;;3.10;2.90;;;;;;;;;;5057230;28;20452;-65
2022/05/12 03:58:48;;;;;;;2.87;2.60;;;;;;;;;;5075416;28;20549;-65
2022/05/12 04:01:14;;;;;;;3.10;2.80;;;;;;;;;;5075520;28;20397;-64
2022/05/12 04:03:41;;;;;;;3.50;2.40;;;;;;;;;;5075574;28;20499;-67
2022/05/12 04:06:07;;;;;;;2.87;2.63;;;;;;;;;;5075456;28;20508;-65
2022/05/12 04:08:33;;;;;;;5.00;2.70;;;;;;;;;;5075044;28;20464;-66
2022/05/12 04:11:00;;;;;;;4.17;2.73;;;;;;;;;;5075339;28;20891;-67
2022/05/12 04:13:26;;;;;;;2.83;2.40;;;;;;;;;;5075423;28;20784;-68
2022/05/12 04:15:53;;;;;;;3.50;2.57;;;;;;;;;;5075251;28;20491;-69
2022/05/12 04:18:19;;;;;;;3.07;2.77;;;;;;;;;;5075047;28;21052;-68
2022/05/12 04:20:45;;;;;;;3.10;2.60;;;;;;;;;;5075206;28;20485;-68
2022/05/12 04:23:11;;;;;;;2.30;2.20;;;;;;;;;;5075197;28;20403;-69
2022/05/12 04:25:37;;;;;;;3.03;2.83;;;;;;;;;;5074954;28;20409;-70
2022/05/12 04:28:04;;;;;;;2.40;2.17;;;;;;;;;;5074904;28;20448;-65
2022/05/12 04:30:30;;;;;;;2.50;2.30;;;;;;;;;;5074896;28;20466;-68
2022/05/12 04:35:09;;;;;;;2.87;2.57;;;;;;;;;;5074972;28;20404;-64
2022/05/12 04:35:42;;;;;;;7.03;2.67;;;;;;;;;;5074803;28;20907;-65
2022/05/12 04:38:10;;;;;;;2.70;2.50;;;;;;;;;;5074717;28;20947;-67
2022/05/12 04:40:37;;;;;;;7.73;2.80;;;;;;;;;;5074669;28;20400;-68
2022/05/12 04:43:03;;;;;;;3.33;2.67;;;;;;;;;;5074957;28;20787;-68
2022/05/12 04:45:31;;;;;;;4.10;2.60;;;;;;;;;;5074596;28;20416;-64
2022/05/12 04:47:57;;;;;;;3.13;2.73;;;;;;;;;;5074471;28;20498;-65
2022/05/12 04:50:24;;;;;;;3.10;2.73;;;;;;;;;;5074435;28;20509;-64
2022/05/12 04:52:50;;;;;;;3.50;3.20;;;;;;;;;;5074537;28;20478;-65
2022/05/12 04:55:17;;;;;;;3.00;2.53;;;;;;;;;;5074435;28;20401;-64
2022/05/12 04:57:44;;;;;;;2.83;2.30;;;;;;;;;;5074275;28;20529;-67
2022/05/12 05:00:13;;;;;;;5.90;2.63;;;;;;;;;;5074347;28;20444;-68
2022/05/12 05:02:40;;;;;;;6.00;2.87;;;;;;;;;;5074273;28;20511;-70
2022/05/12 05:05:06;;;;;;;3.00;2.70;;;;;;;;;;5074001;28;20466;-64
2022/05/12 05:07:32;;;;;;;4.50;2.10;;;;;;;;;;5073791;28;20543;-63
2022/05/12 05:09:58;;;;;;;2.67;2.47;;;;;;;;;;5073893;28;20511;-65
2022/05/12 05:12:25;;;;;;;3.87;2.43;;;;;;;;;;5074117;28;20484;-65
2022/05/12 05:14:51;;;;;;;7.30;2.33;;;;;;;;;;5073933;28;20409;-65
2022/05/12 05:17:17;;;;;;;11.30;2.90;;;;;;;;;;5073943;28;20400;-64
2022/05/12 05:19:43;;;;;;;2.47;2.30;;;;;;;;;;5073966;28;20500;-64
2022/05/12 05:22:09;;;;;;;2.40;2.20;;;;;;;;;;5073666;28;20488;-63
2022/05/12 05:24:35;;;;;;;3.63;2.73;;;;;;;;;;5073727;28;20397;-64
2022/05/12 05:27:01;;;;;;;3.80;2.80;;;;;;;;;;5055834;28;20431;-64
2022/05/12 05:29:27;;;;;;;2.37;2.27;;;;;;;;;;5055642;28;20929;-65
2022/05/12 05:31:53;;;;;;;2.83;2.63;;;;;;;;;;5073595;28;20405;-64
2022/05/12 05:34:19;;;;;;;4.40;2.70;;;;;;;;;;5073680;28;20412;-64
2022/05/12 05:36:45;;;;;;;3.57;2.60;;;;;;;;;;5073637;28;20415;-64
2022/05/12 05:39:18;;;;;;;3.03;2.30;;;;;;;;;;5073346;28;20471;-64
2022/05/12 05:41:45;;;;;;;3.27;2.23;;;;;;;;;;5073529;28;20407;-64
2022/05/12 05:44:11;;;;;;;3.67;2.30;;;;;;;;;;5073488;28;20412;-63
2022/05/12 05:46:37;;;;;;;2.73;2.50;;;;;;;;;;5073479;28;20440;-64
2022/05/12 05:49:03;;;;;;;6.30;3.37;;;;;;;;;;5073274;28;20811;-63
2022/05/12 05:54:14;;;;;;;3.73;2.73;;;;;;;;;;5073469;28;20388;-64
2022/05/12 05:56:40;;;;;;;4.43;2.50;;;;;;;;;;5073153;28;20437;-65
2022/05/12 05:59:06;;;;;;;5.90;2.77;;;;;;;;;;5055207;28;20476;-65
2022/05/12 06:01:32;;;;;;;2.50;2.30;;;;;;;;;;5073270;28;20466;-64
2022/05/12 06:03:58;;;;;;;3.93;3.03;;;;;;;;;;5073257;28;20469;-64
2022/05/12 06:06:24;;;;;;;2.83;2.53;;;;;;;;;;5073005;28;20405;-65
2022/05/12 06:08:50;;;;;;;3.97;3.67;;;;;;;;;;5073072;28;20511;-66
2022/05/12 06:11:16;;;;;;;2.50;2.37;;;;;;;;;;5073134;28;20583;-64
2022/05/12 06:13:44;;;;;;;2.87;2.67;;;;;;;;;;5073002;28;20448;-64
2022/05/12 06:16:10;;;;;;;4.23;2.70;;;;;;;;;;5073095;28;20879;-64
2022/05/12 06:18:37;;;;;;;3.03;2.50;;;;;;;;;;5072537;28;20868;-64
2022/05/12 06:21:04;;;;;;;3.20;2.93;;;;;;;;;;5073212;28;20400;-64
2022/05/12 06:23:32;;;;;;;3.67;2.43;;;;;;;;;;5073017;28;20413;-64
2022/05/12 06:25:58;;;;;;;2.57;2.30;;;;;;;;;;5072873;28;20478;-64
2022/05/12 06:28:25;;;;;;;3.20;2.40;;;;;;;;;;5072787;28;20408;-66
2022/05/12 06:30:51;;;;;;;3.63;2.93;;;;;;;;;;5072875;28;20412;-65
2022/05/12 06:33:18;;;;;;;3.27;2.97;;;;;;;;;;5072970;28;20416;-67
2022/05/12 06:35:44;;;;;;;5.93;2.77;;;;;;;;;;5072840;28;20404;-67
2022/05/12 06:38:11;;;;;;;2.83;2.63;;;;;;;;;;5072748;28;20476;-64
2022/05/12 06:40:37;;;;;;;3.87;2.50;;;;;;;;;;5072951;28;20423;-69
2022/05/12 06:43:04;;;;;;;2.90;2.33;;;;;;;;;;5072710;28;20907;-63
2022/05/12 06:45:30;;;;;;;4.00;2.60;;;;;;;;;;5072610;28;20419;-63
2022/05/12 06:47:56;;;;;;;3.70;2.57;;;;;;;;;;5072522;28;20424;-63
2022/05/12 06:50:26;;;;;;;2.53;2.33;;;;;;;;;;5072551;28;20493;-70
2022/05/12 06:52:53;;;;;;;3.50;3.20;;;;;;;;;;5072568;28;20409;-63
2022/05/12 06:55:19;;;;;;;4.13;2.57;;;;;;;;;;5072623;28;20508;-66
2022/05/12 06:57:46;;;;;;;2.53;2.33;;;;;;;;;;5072486;28;20535;-64
2022/05/12 07:00:15;;;;;;;2.83;2.47;;;;;;;;;;5054455;28;20437;-63
2022/05/12 07:02:41;;;;;;;5.50;3.10;;;;;;;;;;5072688;28;20409;-64
2022/05/12 07:05:08;;;;;;;2.80;2.60;;;;;;;;;;5072477;28;20417;-63
2022/05/12 07:07:35;;;;;;;4.30;2.50;;;;;;;;;;5072425;28;20459;-64
2022/05/12 07:10:01;;;;;;;4.97;2.67;;;;;;;;;;5072341;28;20448;-64
2022/05/12 07:12:27;;;;;;;4.37;2.97;;;;;;;;;;5072470;28;20904;-64
2022/05/12 07:14:55;;;;;;;3.10;2.53;;;;;;;;;;5072453;28;20922;-64
2022/05/12 07:17:21;;;;;;;5.30;2.80;;;;;;;;;;5072363;28;20470;-64
2022/05/12 07:19:48;;;;;;;2.30;2.10;;;;;;;;;;5072505;28;20485;-63
2022/05/12 07:27:44;;;;;;;2.87;2.50;;;;;;;;;;5072372;28;20404;-65
2022/05/12 07:30:12;;;;;;;4.20;2.77;;;;;;;;;;5055786;28;20420;-67
2022/05/12 07:32:38;;;;;;;4.63;3.00;;;;;;;;;;5057988;28;20964;-64
2022/05/12 07:35:07;;;;;;;5.53;2.57;;;;;;;;;;5075907;28;20412;-63
2022/05/12 07:37:34;;;;;;;3.63;2.70;;;;;;;;;;5075821;28;20455;-64
2022/05/12 07:40:00;;;;;;;3.40;2.67;;;;;;;;;;5075743;28;20443;-64
2022/05/12 07:42:26;;;;;;;5.63;2.50;;;;;;;;;;5075661;28;20811;-64
2022/05/12 07:44:52;;;;;;;3.20;2.50;;;;;;;;;;5075666;28;20408;-67
2022/05/12 07:47:19;;;;;;;4.33;2.67;;;;;;;;;;5075526;28;20404;-65
2022/05/12 07:49:46;;;;;;;2.50;2.30;;;;;;;;;;5057534;28;20427;-65
2022/05/12 07:52:14;;;;;;;4.50;2.53;;;;;;;;;;5075622;28;20407;-63
2022/05/12 07:54:40;;;;;;;3.37;2.30;;;;;;;;;;5075683;28;20420;-65
2022/05/12 07:57:06;;;;;;;3.50;2.50;;;;;;;;;;5075426;28;20431;-64
2022/05/12 07:59:34;;;;;;;4.00;2.73;;;;;;;;;;5057299;28;20838;-63
2022/05/12 08:02:01;;;;;;;3.20;2.57;;;;;;;;;;5075280;28;20408;-68
2022/05/12 08:04:27;;;;;;;3.30;2.43;;;;;;;;;;5075265;28;20930;-68
2022/05/12 08:06:54;;;;;;;6.40;2.30;;;;;;;;;;5075053;28;20958;-64
2022/05/12 08:09:20;;;;;;;3.10;2.50;;;;;;;;;;5075059;28;20405;-65
2022/05/12 08:11:46;;;;;;;3.13;2.67;;;;;;;;;;5075264;28;20401;-64
2022/05/12 08:14:12;;;;;;;6.00;2.67;;;;;;;;;;5075129;28;20405;-65
2022/05/12 08:16:39;;;;;;;2.77;2.40;;;;;;;;;;5057281;28;20492;-66
2022/05/12 08:19:05;;;;;;;2.60;2.40;;;;;;;;;;5074946;28;20548;-68
2022/05/12 08:21:31;;;;;;;2.53;2.33;;;;;;;;;;5074977;28;20978;-65
2022/05/12 08:23:57;;;;;;;4.60;2.53;;;;;;;;;;5074891;28;20416;-73
2022/05/12 08:26:23;;;;;;;3.80;3.10;;;;;;;;;;5074876;28;20771;-72
2022/05/12 08:28:50;;;;;;;3.90;2.80;;;;;;;;;;5074882;28;20405;-73
2022/05/12 08:31:16;;;;;;;2.87;2.57;;;;;;;;;;5075010;28;20808;-68
2022/05/12 08:33:42;;;;;;;2.70;2.50;;;;;;;;;;5074724;28;20409;-74
2022/05/12 08:36:10;;;;;;;6.60;3.17;;;;;;;;;;5056913;28;20429;-66
2022/05/12 08:38:40;;;;;;;3.50;3.23;;;;;;;;;;5074602;28;20551;-65
2022/05/12 08:41:12;;;;;;;3.10;2.77;;;;;;;;;;5074346;28;20401;-65
2022/05/12 08:43:44;;;;;;;4.20;3.10;;;;;;;;;;5074631;28;20504;-63
2022/05/12 08:46:19;;;;;;;5.67;3.07;;;;;;;;;;5074582;28;20437;-66
2022/05/12 08:48:46;;;;;;;3.23;2.87;;;;;;;;;;5074348;28;20423;-72
2022/05/12 08:51:13;;;;;;;4.77;3.30;;;;;;;;;;5074499;28;20404;-72
2022/05/12 08:53:44;;;;;;;3.90;2.93;;;;;;;;;;5074518;28;20405;-69
2022/05/12 08:56:10;;;;;;;3.40;3.10;;;;;;;;;;5074182;28;20444;-65
2022/05/12 08:58:40;;;;;;;4.33;3.50;;;;;;;;;;5073945;28;20454;-67
2022/05/12 09:01:09;;;;;;;3.60;3.40;;;;;;;;;;5056055;28;20409;-68
2022/05/12 09:03:35;;;;;;;3.87;3.57;;;;;;;;;;5074199;28;20487;-68
2022/05/12 09:06:06;;;;;;;3.00;2.67;;;;;;;;;;5074095;28;20417;-67
2022/05/12 09:08:32;;;;;;;3.43;3.20;;;;;;;;;;5073617;28;20476;-67
2022/05/12 09:11:04;;;;;;;3.80;3.50;;;;;;;;;;5074155;28;20411;-67
2022/05/12 09:13:35;;;;;;;3.20;2.87;;;;;;;;;;5074023;28;20449;-65
2022/05/12 09:16:07;;;;;;;5.50;2.60;;;;;;;;;;5073942;28;20404;-67
2022/05/12 09:18:34;;;;;;;3.23;2.93;;;;;;;;;;5073875;28;20828;-64
2022/05/12 09:21:05;;;;;;;5.20;3.37;;;;;;;;;;5073971;28;20415;-65
2022/05/12 09:23:31;;;;;;;4.10;3.67;;;;;;;;;;5073863;28;20408;-67
2022/05/12 09:25:57;;;;;;;3.70;3.50;;;;;;;;;;5073844;28;20416;-68
2022/05/12 09:28:29;;;;;;;4.93;3.67;;;;;;;;;;5073577;28;20441;-63
2022/05/12 09:30:58;;;;;;;3.70;3.40;;;;;;;;;;5055914;28;20915;-66
2022/05/12 09:33:35;;;;;;;4.77;4.37;;;;;;;;;;5073570;28;20966;-65
2022/05/12 09:36:03;;;;;;;4.47;3.60;;;;;;;;;;5073617;28;20990;-64
2022/05/12 09:38:30;;;;;;;6.47;3.90;;;;;;;;;;5073467;28;20503;-64
2022/05/12 09:40:57;;;;;;;4.60;4.20;;;;;;;;;;5073541;28;20412;-73
2022/05/12 09:43:33;;;;;;;6.70;4.97;;;;;;;;;;5073516;28;20396;-64
2022/05/12 09:46:22;;;;;;;4.63;4.23;;;;;;;;;;5073364;28;20420;-65
2022/05/12 09:48:49;;;;;;;5.10;4.60;;;;;;;;;;5062901;28;20456;-65
2022/05/12 09:51:22;;;;;;;7.20;3.90;;;;;;;;;;5073368;28;20413;-64
2022/05/12 09:53:53;;;;;;;6.90;4.20;;;;;;;;;;5072766;28;20417;-68
2022/05/12 09:56:31;;;;;;;4.40;4.10;;;;;;;;;;5055339;28;20440;-64
2022/05/12 09:59:07;;;;;;;4.90;4.10;;;;;;;;;;5073134;28;21074;-68
2022/05/12 10:01:33;;;;;;;8.23;4.90;;;;;;;;;;5073215;28;20432;-65
2022/05/12 10:08:06;;;;;;;5.43;3.90;;;;;;;;;;5073362;28;20452;-67
2022/05/12 10:10:07;;;;;;;4.70;4.00;;;;;;;;;;5059484;28;20421;-64
2022/05/12 10:12:36;;;;;;;5.57;4.70;;;;;;;;;;5073131;28;20429;-64
2022/05/12 10:15:18;;;;;;;3.83;3.53;;;;;;;;;;5055116;28;20412;-64
2022/05/12 10:17:45;;;;;;;5.37;4.90;;;;;;;;;;5072941;28;20416;-64
2022/05/12 10:20:11;;;;;;;5.33;3.93;;;;;;;;;;5072839;28;20473;-65
2022/05/12 10:22:44;;;;;;;4.70;4.30;;;;;;;;;;5073012;28;20405;-64
2022/05/12 10:25:19;;;;;;;6.57;4.60;;;;;;;;;;5072854;28;20413;-66
2022/05/12 10:28:04;;;;;;;4.10;3.80;;;;;;;;;;5072894;28;20470;-66
2022/05/12 10:30:53;;;;;;;8.50;5.13;;;;;;;;;;5072597;28;20423;-64
2022/05/12 10:33:38;;;;;;;4.43;4.13;;;;;;;;;;5062291;28;20421;-63
2022/05/12 10:36:13;;;;;;;4.83;4.33;;;;;;;;;;5072758;28;20412;-66
2022/05/12 10:38:54;;;;;;;7.00;4.50;;;;;;;;;;5072757;28;20467;-64
2022/05/12 10:41:23;;;;;;;5.07;4.57;;;;;;;;;;5072856;28;20404;-64
2022/05/12 10:43:55;;;;;;;8.50;5.00;;;;;;;;;;5072775;28;20405;-64
2022/05/12 10:46:30;;;;;;;9.30;5.50;;;;;;;;;;5072808;28;20412;-64
2022/05/12 10:49:06;;;;;;;5.77;4.13;;;;;;;;;;5072549;28;20439;-64
2022/05/12 10:51:52;;;;;;;4.63;4.23;;;;;;;;;;5072695;28;20408;-63
2022/05/12 10:54:24;;;;;;;4.57;4.20;;;;;;;;;;5031769;28;20405;-69
2022/05/12 10:56:58;;;;;;;6.83;3.97;;;;;;;;;;5054678;28;20478;-67
2022/05/12 10:59:27;;;;;;;5.93;4.13;;;;;;;;;;5072654;28;20559;-70
2022/05/12 11:02:03;;;;;;;4.37;3.97;;;;;;;;;;5072504;28;20499;-66
2022/05/12 11:04:38;;;;;;;4.97;4.47;;;;;;;;;;5074973;28;20412;-66
2022/05/12 11:07:11;;;;;;;6.70;4.50;;;;;;;;;;5075946;28;20450;-70
2022/05/12 11:09:40;;;;;;;4.37;4.00;;;;;;;;;;5058291;28;20417;-67
2022/05/12 11:12:17;;;;;;;5.57;4.63;;;;;;;;;;5076198;28;20412;-66
2022/05/12 11:14:48;;;;;;;4.73;4.37;;;;;;;;;;5076338;28;20404;-67
2022/05/12 11:17:14;;;;;;;6.37;4.53;;;;;;;;;;5058249;28;20409;-66
2022/05/12 11:19:44;;;;;;;4.90;4.50;;;;;;;;;;5076099;28;20487;-66
2022/05/12 11:22:28;;;;;;;5.10;4.80;;;;;;;;;;5076116;28;20408;-66
2022/05/12 11:25:00;;;;;;;5.50;5.00;;;;;;;;;;5076161;28;20407;-67
2022/05/12 11:27:36;;;;;;;5.60;4.30;;;;;;;;;;5075790;28;20440;-74
2022/05/12 11:30:17;;;;;;;7.37;4.90;;;;;;;;;;5058047;28;20436;-63
2022/05/12 11:32:43;;;;;;;4.83;4.50;;;;;;;;;;5075936;28;20904;-74
2022/05/12 11:35:16;;;;;;;4.43;4.00;;;;;;;;;;5075872;28;20405;-65
2022/05/12 11:37:42;;;;;;;5.60;4.13;;;;;;;;;;5075626;28;20457;-65
2022/05/12 11:40:12;;;;;;;9.03;4.40;;;;;;;;;;5075779;28;20432;-70
2022/05/12 11:45:43;;;;;;;5.27;4.33;;;;;;;;;;5075856;28;20488;-67
2022/05/12 11:48:15;;;;;;;5.57;5.00;;;;;;;;;;5075465;28;20405;-64
2022/05/12 11:50:50;;;;;;;6.40;5.50;;;;;;;;;;5075465;28;20401;-65
2022/05/12 11:53:19;;;;;;;5.23;4.83;;;;;;;;;;5075600;28;20485;-64
2022/05/12 11:56:01;;;;;;;5.07;4.67;;;;;;;;;;5075329;28;20511;-64
2022/05/12 11:58:30;;;;;;;5.10;4.70;;;;;;;;;;5075427;28;20496;-68
2022/05/12 12:00:57;;;;;;;7.53;4.73;;;;;;;;;;5075411;28;20409;-64
2022/05/12 12:03:23;;;;;;;4.73;4.33;;;;;;;;;;5075390;28;20469;-64
2022/05/12 12:05:49;;;;;;;6.17;5.53;;;;;;;;;;5075383;28;20405;-64
2022/05/12 12:08:30;;;;;;;6.17;5.53;;;;;;;;;;5075163;28;20456;-64
2022/05/12 12:11:15;;;;;;;5.63;5.00;;;;;;;;;;5075258;28;20435;-64
2022/05/12 12:13:41;;;;;;;7.43;5.33;;;;;;;;;;5075180;28;20474;-65
2022/05/12 12:16:14;;;;;;;6.93;4.47;;;;;;;;;;5074272;28;20400;-65
2022/05/12 12:18:40;;;;;;;8.47;5.63;;;;;;;;;;5074956;28;20476;-66
2022/05/12 12:21:38;;;;;;;7.10;5.70;;;;;;;;;;5074976;28;20532;-65
2022/05/12 12:24:09;;;;;;;5.63;5.13;;;;;;;;;;5013857;28;20413;-66
2022/05/12 12:26:40;;;;;;;5.33;4.43;;;;;;;;;;5074948;28;20412;-65
2022/05/12 12:29:09;;;;;;;5.73;5.33;;;;;;;;;;5074755;28;20413;-65
2022/05/12 12:31:40;;;;;;;5.30;4.90;;;;;;;;;;5074646;28;20413;-64
2022/05/12 12:34:23;;;;;;;5.80;5.30;;;;;;;;;;5074823;28;20731;-64
2022/05/12 12:36:49;;;;;;;7.43;5.03;;;;;;;;;;5074870;28;20397;-64
2022/05/12 12:39:41;;;;;;;4.30;4.00;;;;;;;;;;5074642;28;20515;-64
2022/05/12 12:42:13;;;;;;;5.00;4.60;;;;;;;;;;5071130;28;20413;-64
2022/05/12 12:44:46;;;;;;;5.03;4.63;;;;;;;;;;5074526;28;20416;-65
2022/05/12 12:47:27;;;;;;;6.83;4.87;;;;;;;;;;5074458;28;20806;-64
2022/05/12 12:49:56;;;;;;;4.67;4.27;;;;;;;;;;5074354;28;20458;-65
2022/05/12 12:52:22;;;;;;;6.23;5.40;;;;;;;;;;5074569;28;20401;-65
2022/05/12 12:57:43;;;;;;;6.53;4.47;;;;;;;;;;5074280;28;20400;-65
2022/05/12 13:00:15;;;;;;;6.20;5.63;;;;;;;;;;5074418;28;20400;-66
2022/05/12 13:02:43;;;;;;;5.87;4.20;;;;;;;;;;5074481;28;20409;-66
2022/05/12 13:05:11;;;;;;;5.00;4.60;;;;;;;;;;5074241;28;20412;-68
2022/05/12 13:07:38;;;;;;;5.47;4.60;;;;;;;;;;5074011;28;20456;-65
2022/05/12 13:10:06;;;;;;;5.03;4.53;;;;;;;;;;5056227;28;20903;-65
2022/05/12 13:12:32;;;;;;;4.90;4.50;;;;;;;;;;5074216;28;20791;-65
2022/05/12 13:15:00;;;;;;;4.17;3.87;;;;;;;;;;5074116;28;20424;-68
2022/05/12 13:17:38;;;;;;;9.10;4.27;;;;;;;;;;5073994;28;20392;-68
2022/05/12 13:20:10;;;;;;;9.27;5.00;;;;;;;;;;5074091;28;20431;-65
2022/05/12 13:22:45;;;;;;;6.40;4.27;;;;;;;;;;5074030;28;20408;-64
2022/05/12 13:25:12;;;;;;;5.77;4.50;;;;;;;;;;5055885;28;20455;-64
2022/05/12 13:27:39;;;;;;;4.60;4.10;;;;;;;;;;5072794;28;20412;-65
2022/05/12 13:30:06;;;;;;;6.07;4.53;;;;;;;;;;5073848;28;20400;-68
2022/05/12 13:32:36;;;;;;;11.10;4.30;;;;;;;;;;5055803;28;20766;-66
2022/05/12 13:35:10;;;;;;;8.03;5.10;;;;;;;;;;5073741;28;20938;-65
2022/05/12 13:37:43;;;;;;;5.53;4.70;;;;;;;;;;5073742;28;20422;-63
2022/05/12 13:40:12;;;;;;;8.50;5.30;;;;;;;;;;5073633;28;20424;-64
2022/05/12 13:42:39;;;;;;;4.87;4.50;;;;;;;;;;5073481;28;20990;-64
2022/05/12 13:45:10;;;;;;;10.63;4.83;;;;;;;;;;5073544;28;20763;-66
2022/05/12 13:47:49;;;;;;;10.60;5.10;;;;;;;;;;5073438;28;20399;-66
2022/05/12 13:50:16;;;;;;;4.67;4.30;;;;;;;;;;5073372;28;20409;-65
2022/05/12 13:52:46;;;;;;;4.77;4.27;;;;;;;;;;5073434;28;20502;-64
2022/05/12 13:55:20;;;;;;;6.50;3.90;;;;;;;;;;5073293;28;20758;-65
2022/05/12 13:57:48;;;;;;;4.53;4.13;;;;;;;;;;5073313;28;20389;-65
2022/05/12 14:00:35;;;;;;;6.20;4.70;;;;;;;;;;5073329;28;20458;-65
2022/05/12 14:03:23;;;;;;;3.70;3.40;;;;;;;;;;5073265;28;20423;-65
2022/05/12 14:05:50;;;;;;;5.90;4.43;;;;;;;;;;5073339;28;20411;-67
2022/05/12 14:08:23;;;;;;;4.77;4.17;;;;;;;;;;5073074;28;20463;-65
2022/05/12 14:10:53;;;;;;;4.17;3.77;;;;;;;;;;5073175;28;20401;-65
2022/05/12 14:19:14;;;;;;;5.93;4.20;;;;;;;;;;5073016;28;20468;-64
2022/05/12 14:21:43;;;;;;;6.10;3.83;;;;;;;;;;5073032;28;20833;-66
2022/05/12 14:24:09;;;;;;;4.30;3.93;;;;;;;;;;5073124;28;20462;-65
2022/05/12 14:26:35;;;;;;;5.40;4.30;;;;;;;;;;5072930;28;20424;-65
2022/05/12 14:29:01;;;;;;;4.33;3.73;;;;;;;;;;5072928;28;20896;-65
2022/05/12 14:31:28;;;;;;;4.30;3.90;;;;;;;;;;5072907;28;20407;-64
2022/05/12 14:33:54;;;;;;;5.67;4.17;;;;;;;;;;5073141;28;20445;-64
2022/05/12 14:36:21;;;;;;;4.33;4.03;;;;;;;;;;5072972;28;20475;-65
2022/05/12 14:38:48;;;;;;;4.53;4.13;;;;;;;;;;5073887;28;20464;-64
2022/05/12 14:41:14;;;;;;;4.60;4.20;;;;;;;;;;5076906;28;20403;-65
2022/05/12 14:43:41;;;;;;;6.47;4.27;;;;;;;;;;5076885;28;20412;-64
2022/05/12 14:46:07;;;;;;;4.60;4.00;;;;;;;;;;5076937;28;20396;-64
2022/05/12 14:48:33;;;;;;;7.33;4.00;;;;;;;;;;5076642;28;20448;-66
2022/05/12 14:50:59;;;;;;;4.23;3.90;;;;;;;;;;5076725;28;20401;-65
2022/05/12 14:53:26;;;;;;;4.00;3.70;;;;;;;;;;5076813;28;20408;-65
2022/05/12 14:55:52;;;;;;;5.00;3.97;;;;;;;;;;5076622;28;20503;-64
2022/05/12 14:58:18;;;;;;;4.87;4.37;;;;;;;;;;5076513;28;20963;-65
2022/05/12 15:00:44;;;;;;;7.77;4.70;;;;;;;;;;5076550;28;20401;-65
2022/05/12 15:03:11;;;;;;;8.03;5.03;;;;;;;;;;5076646;28;20407;-65
2022/05/12 15:05:37;;;;;;;7.00;4.43;;;;;;;;;;5076511;28;20427;-64
2022/05/12 15:08:04;;;;;;;7.33;5.33;;;;;;;;;;5076112;28;20464;-67
2022/05/12 15:10:30;;;;;;;5.30;4.80;;;;;;;;;;5076470;28;20499;-64
2022/05/12 15:12:56;;;;;;;5.10;4.70;;;;;;;;;;5076542;28;20497;-75
2022/05/12 15:15:22;;;;;;;5.10;4.57;;;;;;;;;;5076435;28;20414;-66
2022/05/12 15:17:51;;;;;;;5.33;4.33;;;;;;;;;;5076221;28;20416;-67